Time;durP1;ratioP1;P1;durP2;ratioP2;P2;SDS_P1;SDS_P2;PMS_P1;PMS_P2;Temp;Humidity;BMP_temperature;BMP_pressure;BME280_temperature;BME280_humidity;BME280_pressure;Samples;Min_cycle;Max_cycle;Signal;HPM_P1;HPM_P2
2023/01/01 00:00:00;;;;;;;479.00;310.40;;;11.60;1.00;;;;;;4988696;28;20668;-68
2023/01/01 00:02:26;;;;;;;366.03;223.77;;;11.60;1.00;;;;;;4989600;28;20167;-68
2023/01/01 00:04:51;;;;;;;288.70;159.83;;;11.70;1.00;;;;;;4990662;28;20877;-68
2023/01/01 00:07:17;;;;;;;256.60;151.57;;;11.80;1.00;;;;;;4994091;28;20171;-69
2023/01/01 00:12:27;;;;;;;190.93;121.67;;;12.00;1.00;;;;;;4994410;28;20591;-68
2023/01/01 00:14:52;;;;;;;123.87;75.00;;;12.10;1.00;;;;;;4992720;28;20516;-70
2023/01/01 00:17:18;;;;;;;93.50;61.27;;;12.00;1.00;;;;;;4974499;28;20176;-68
2023/01/01 00:19:43;;;;;;;106.67;62.37;;;12.10;1.00;;;;;;4974853;28;20172;-68
2023/01/01 00:22:09;;;;;;;107.90;65.53;;;12.20;1.00;;;;;;4981445;28;20180;-71
2023/01/01 00:24:34;;;;;;;103.90;60.97;;;12.10;1.00;;;;;;4990284;28;20315;-68
2023/01/01 00:27:00;;;;;;;103.60;58.93;;;12.10;1.00;;;;;;4977367;28;20248;-68
2023/01/01 00:29:25;;;;;;;96.77;58.00;;;12.10;1.00;;;;;;4974033;28;20667;-72
2023/01/01 00:31:51;;;;;;;101.10;62.83;;;12.10;1.00;;;;;;4974133;28;20263;-71
2023/01/01 00:34:16;;;;;;;98.90;61.93;;;12.00;1.00;;;;;;4974115;28;20192;-68
2023/01/01 00:36:42;;;;;;;108.73;64.73;;;12.00;1.00;;;;;;4974253;28;20279;-71
2023/01/01 00:39:07;;;;;;;116.47;69.67;;;11.90;1.00;;;;;;4965888;28;20195;-69
2023/01/01 00:41:32;;;;;;;122.83;74.93;;;11.80;1.00;;;;;;4972269;28;20176;-68
2023/01/01 00:43:58;;;;;;;126.30;75.03;;;11.70;1.00;;;;;;4973779;28;20691;-68
2023/01/01 00:46:24;;;;;;;133.83;78.47;;;11.60;1.00;;;;;;4974300;28;20291;-68
2023/01/01 00:48:49;;;;;;;135.13;82.50;;;11.60;1.00;;;;;;4973843;28;20176;-68
2023/01/01 00:51:15;;;;;;;133.47;82.90;;;11.40;1.00;;;;;;4978888;28;20406;-68
2023/01/01 00:53:40;;;;;;;138.47;86.90;;;11.40;1.00;;;;;;4985146;28;20569;-68
2023/01/01 00:56:06;;;;;;;159.70;93.53;;;11.30;1.00;;;;;;4983995;28;20576;-68
2023/01/01 00:58:32;;;;;;;145.20;91.37;;;11.20;1.00;;;;;;4974206;28;20819;-68
2023/01/01 01:00:57;;;;;;;162.60;99.70;;;11.10;1.00;;;;;;4967784;28;20184;-72
2023/01/01 01:03:29;;;;;;;167.27;101.17;;;11.00;1.00;;;;;;4960590;28;20219;-69
2023/01/01 01:05:59;;;;;;;164.30;97.53;;;10.90;1.00;;;;;;4962058;28;20230;-67
2023/01/01 01:08:26;;;;;;;156.27;96.20;;;10.90;1.00;;;;;;4970392;28;20435;-68
2023/01/01 01:10:52;;;;;;;157.00;91.90;;;10.90;1.00;;;;;;4965831;28;20439;-69
2023/01/01 01:13:18;;;;;;;137.47;84.17;;;10.80;1.00;;;;;;4970803;28;20479;-65
2023/01/01 01:15:43;;;;;;;132.03;78.60;;;10.70;1.00;;;;;;4980305;28;20443;-67
2023/01/01 01:18:09;;;;;;;116.90;73.67;;;10.70;1.00;;;;;;4971721;28;20465;-68
2023/01/01 01:20:34;;;;;;;115.27;68.50;;;10.70;1.00;;;;;;4972336;28;20180;-69
2023/01/01 01:23:00;;;;;;;113.90;65.37;;;10.60;1.00;;;;;;4979928;28;20172;-67
2023/01/01 01:25:25;;;;;;;107.03;63.13;;;10.60;1.00;;;;;;4969559;28;20191;-68
2023/01/01 01:27:51;;;;;;;103.80;60.77;;;10.60;1.00;;;;;;4972974;28;20176;-68
2023/01/01 01:30:17;;;;;;;94.80;56.10;;;10.60;1.00;;;;;;4970477;28;20192;-69
2023/01/01 01:32:42;;;;;;;98.60;56.60;;;10.60;1.00;;;;;;4971795;28;20258;-67
2023/01/01 01:35:08;;;;;;;100.33;58.60;;;10.50;1.00;;;;;;4968960;28;20198;-68
2023/01/01 01:37:33;;;;;;;96.63;58.30;;;10.50;1.00;;;;;;4969980;28;20180;-68
2023/01/01 01:39:59;;;;;;;106.00;56.30;;;10.40;1.00;;;;;;4968004;28;20287;-67
2023/01/01 01:42:24;;;;;;;86.60;52.37;;;10.20;1.00;;;;;;4970173;28;20291;-68
2023/01/01 01:44:50;;;;;;;93.63;52.40;;;10.40;1.00;;;;;;4971945;28;20266;-68
2023/01/01 01:47:43;;;;;;;82.13;50.40;;;10.40;1.00;;;;;;4971373;28;20168;-67
2023/01/01 01:50:12;;;;;;;88.60;51.37;;;10.40;1.00;;;;;;4965136;28;20609;-68
2023/01/01 01:52:41;;;;;;;82.77;50.10;;;10.40;1.00;;;;;;4978684;28;20422;-68
2023/01/01 01:55:08;;;;;;;83.70;48.60;;;10.40;1.00;;;;;;4970488;28;20533;-69
2023/01/01 01:57:36;;;;;;;80.93;47.10;;;10.40;1.00;;;;;;4971355;28;20430;-68
2023/01/01 02:00:03;;;;;;;75.70;48.57;;;10.40;1.00;;;;;;4971463;28;21292;-68
2023/01/01 02:02:37;;;;;;;83.37;48.77;;;10.30;1.00;;;;;;4969671;28;20763;-69
2023/01/01 02:05:04;;;;;;;75.20;47.40;;;10.30;1.00;;;;;;4963248;28;20518;-67
2023/01/01 02:07:31;;;;;;;75.37;47.87;;;10.30;1.00;;;;;;4970550;28;20431;-67
2023/01/01 02:09:57;;;;;;;77.23;47.07;;;10.30;1.00;;;;;;4967888;28;20442;-67
2023/01/01 02:12:24;;;;;;;79.63;47.20;;;10.20;1.00;;;;;;4969801;28;20747;-68
2023/01/01 02:14:50;;;;;;;75.30;47.17;;;10.20;1.00;;;;;;4971292;28;20211;-68
2023/01/01 02:17:33;;;;;;;69.90;43.30;;;10.10;1.00;;;;;;4970494;28;20455;-68
2023/01/01 02:20:18;;;;;;;68.83;42.73;;;10.10;1.00;;;;;;4971723;28;20520;-67
2023/01/01 02:23:08;;;;;;;68.83;41.33;;;10.10;1.00;;;;;;4977030;28;20937;-67
2023/01/01 02:25:48;;;;;;;66.50;38.43;;;10.20;1.00;;;;;;4967699;28;20441;-67
2023/01/01 02:28:23;;;;;;;63.27;38.33;;;10.30;1.00;;;;;;4963097;28;20443;-68
2023/01/01 02:30:52;;;;;;;55.07;33.97;;;10.40;1.00;;;;;;4971381;28;20422;-67
2023/01/01 02:33:22;;;;;;;61.40;38.60;;;10.50;1.00;;;;;;4969917;28;20845;-70
2023/01/01 02:35:55;;;;;;;45.90;30.63;;;10.50;1.00;;;;;;4970645;28;20501;-68
2023/01/01 02:38:27;;;;;;;46.87;31.03;;;10.60;1.00;;;;;;4964202;28;20539;-67
2023/01/01 02:40:59;;;;;;;50.63;32.20;;;10.70;1.00;;;;;;4969361;28;20419;-69
2023/01/01 02:43:25;;;;;;;48.70;30.93;;;10.90;1.00;;;;;;4970179;28;20471;-68
2023/01/01 02:45:53;;;;;;;43.70;28.40;;;10.80;1.00;;;;;;4971148;28;20439;-69
2023/01/01 02:48:39;;;;;;;49.50;31.30;;;10.80;1.00;;;;;;4968811;28;20180;-68
2023/01/01 02:51:29;;;;;;;47.97;32.03;;;10.80;1.00;;;;;;4962322;28;20435;-68
2023/01/01 02:54:18;;;;;;;51.87;32.20;;;10.80;1.00;;;;;;4970034;28;20435;-68
2023/01/01 02:57:01;;;;;;;55.63;33.43;;;10.70;1.00;;;;;;4964866;28;20451;-68
2023/01/01 03:03:08;;;;;;;51.17;32.93;;;10.70;1.00;;;;;;4967113;28;20822;-67
2023/01/01 03:08:50;;;;;;;49.17;31.30;;;10.50;1.00;;;;;;4968442;28;20564;-68
2023/01/01 03:11:19;;;;;;;51.93;32.30;;;10.40;1.00;;;;;;4970630;28;20416;-67
2023/01/01 03:14:06;;;;;;;53.43;34.50;;;10.40;1.00;;;;;;4969369;28;21344;-69
2023/01/01 03:17:06;;;;;;;50.27;32.97;;;10.00;1.00;;;;;;4971320;28;20423;-68
2023/01/01 03:19:38;;;;;;;62.33;35.10;;;10.20;1.00;;;;;;4968466;28;20439;-68
2023/01/01 03:22:11;;;;;;;54.00;32.53;;;10.10;1.00;;;;;;4964867;28;20462;-68
2023/01/01 03:24:46;;;;;;;49.53;32.63;;;10.00;1.00;;;;;;4969173;28;20981;-67
2023/01/01 03:27:21;;;;;;;62.97;39.07;;;10.00;1.00;;;;;;4970209;28;20477;-68
2023/01/01 03:29:49;;;;;;;52.80;33.57;;;9.90;1.00;;;;;;4968076;28;20517;-68
2023/01/01 03:32:21;;;;;;;51.30;34.67;;;9.90;1.00;;;;;;4967739;28;20415;-67
2023/01/01 03:34:53;;;;;;;53.23;35.27;;;9.80;1.00;;;;;;4969341;28;20996;-68
2023/01/01 03:37:25;;;;;;;50.23;32.47;;;9.70;1.00;;;;;;4969546;28;20411;-67
2023/01/01 03:39:54;;;;;;;52.00;32.93;;;9.70;1.00;;;;;;4960357;28;20439;-67
2023/01/01 03:42:27;;;;;;;52.43;32.20;;;9.60;1.00;;;;;;4969453;28;20406;-67
2023/01/01 03:45:18;;;;;;;49.57;30.83;;;9.60;1.30;;;;;;4968188;28;20545;-67
2023/01/01 03:47:44;;;;;;;42.80;28.70;;;9.70;1.00;;;;;;4969392;28;20972;-67
2023/01/01 03:50:11;;;;;;;44.97;29.40;;;9.60;1.00;;;;;;4970519;28;20414;-68
2023/01/01 03:52:56;;;;;;;45.20;28.97;;;9.70;1.00;;;;;;4981369;28;20869;-67
2023/01/01 03:55:32;;;;;;;47.40;29.37;;;9.70;1.00;;;;;;4975236;28;20426;-68
2023/01/01 03:58:22;;;;;;;42.97;27.77;;;9.70;1.00;;;;;;4969846;28;20762;-69
2023/01/01 04:01:21;;;;;;;41.77;26.53;;;9.60;1.00;;;;;;4963169;28;20416;-68
2023/01/01 04:03:47;;;;;;;43.50;25.97;;;9.60;1.60;;;;;;4967788;28;20536;-68
2023/01/01 04:06:13;;;;;;;42.37;26.10;;;9.60;1.40;;;;;;4969560;28;20590;-68
2023/01/01 04:08:39;;;;;;;39.70;23.50;;;9.60;1.50;;;;;;4966942;28;20526;-67
2023/01/01 04:14:00;;;;;;;36.77;23.07;;;9.50;1.00;;;;;;4968802;28;20198;-68
2023/01/01 04:16:25;;;;;;;40.40;24.63;;;9.50;1.00;;;;;;4970866;28;20419;-68
2023/01/01 04:18:51;;;;;;;40.97;24.87;;;9.50;1.00;;;;;;4968666;28;20260;-67
2023/01/01 04:21:16;;;;;;;39.00;22.97;;;9.50;1.00;;;;;;4969956;28;20180;-67
2023/01/01 04:23:42;;;;;;;36.77;24.70;;;9.50;1.10;;;;;;4976721;28;20254;-68
2023/01/01 04:26:12;;;;;;;39.40;23.73;;;9.40;1.20;;;;;;4970086;28;20251;-68
2023/01/01 04:28:38;;;;;;;38.80;22.83;;;9.40;3.70;;;;;;4969089;28;20183;-67
2023/01/01 04:31:04;;;;;;;31.57;20.37;;;9.40;3.30;;;;;;4969360;28;20415;-67
2023/01/01 04:33:29;;;;;;;38.33;22.40;;;9.40;5.90;;;;;;4969221;28;20231;-69
2023/01/01 04:35:55;;;;;;;36.60;22.20;;;9.40;2.70;;;;;;4967918;28;20188;-69
2023/01/01 04:38:20;;;;;;;34.33;21.30;;;9.40;3.00;;;;;;4964206;28;20184;-68
2023/01/01 04:40:56;;;;;;;35.47;21.80;;;9.40;3.00;;;;;;4968693;28;20671;-71
2023/01/01 04:43:22;;;;;;;31.60;20.00;;;9.40;2.80;;;;;;4968745;28;20626;-69
2023/01/01 04:45:57;;;;;;;28.87;20.70;;;9.40;3.60;;;;;;4969389;28;20415;-69
2023/01/01 04:48:23;;;;;;;36.17;21.00;;;9.40;4.70;;;;;;4968391;28;20187;-68
2023/01/01 04:50:57;;;;;;;27.17;17.63;;;9.40;5.50;;;;;;4972063;28;20412;-67
2023/01/01 04:53:23;;;;;;;25.43;16.17;;;9.30;6.60;;;;;;4974549;28;20207;-69
2023/01/01 04:55:50;;;;;;;23.60;15.80;;;9.40;8.00;;;;;;4971756;28;20454;-68
2023/01/01 04:58:15;;;;;;;25.07;16.00;;;9.50;9.10;;;;;;4972750;28;20439;-68
2023/01/01 05:00:41;;;;;;;23.23;14.10;;;9.50;6.70;;;;;;4972223;28;20431;-70
2023/01/01 05:03:06;;;;;;;25.87;15.93;;;9.50;7.80;;;;;;4971028;28;20283;-68
2023/01/01 05:05:32;;;;;;;26.27;16.00;;;9.50;4.70;;;;;;4972359;28;20176;-69
2023/01/01 05:07:57;;;;;;;23.93;16.20;;;9.50;2.80;;;;;;4970391;28;20176;-70
2023/01/01 05:10:23;;;;;;;28.87;17.90;;;9.40;3.50;;;;;;4970256;28;20187;-68
2023/01/01 05:12:48;;;;;;;27.10;17.00;;;9.30;1.80;;;;;;4971797;28;20558;-68
2023/01/01 05:15:14;;;;;;;24.30;16.63;;;9.30;3.30;;;;;;4972614;28;20172;-71
2023/01/01 05:17:39;;;;;;;25.03;16.67;;;9.20;2.70;;;;;;4971558;28;20655;-68
2023/01/01 05:20:05;;;;;;;25.70;17.50;;;9.10;1.50;;;;;;4972573;28;20176;-69
2023/01/01 05:22:31;;;;;;;26.63;17.27;;;9.10;4.90;;;;;;4986259;28;20674;-68
2023/01/01 05:24:56;;;;;;;25.87;16.13;;;9.10;4.00;;;;;;4991461;28;20460;-71
2023/01/01 05:27:22;;;;;;;25.80;15.80;;;9.00;5.90;;;;;;4971367;28;20188;-68
2023/01/01 05:29:47;;;;;;;23.40;14.93;;;9.00;8.40;;;;;;4972379;28;20184;-70
2023/01/01 05:32:13;;;;;;;19.50;12.03;;;8.90;11.60;;;;;;4971130;28;20180;-69
2023/01/01 05:34:38;;;;;;;12.53;6.97;;;9.10;14.40;;;;;;4969749;28;20707;-68
2023/01/01 05:37:04;;;;;;;7.57;5.80;;;9.50;20.90;;;;;;4969557;28;20259;-70
2023/01/01 05:39:29;;;;;;;10.47;5.30;;;10.20;6.30;;;;;;4964750;28;20187;-70
2023/01/01 05:41:56;;;;;;;7.53;4.77;;;10.70;1.00;;;;;;4971932;28;20176;-68
2023/01/01 05:44:22;;;;;;;11.00;5.47;;;11.00;1.00;;;;;;4970072;28;20474;-67
2023/01/01 05:46:47;;;;;;;7.93;4.43;;;11.20;1.00;;;;;;4972524;28;20506;-72
2023/01/01 05:49:13;;;;;;;10.30;6.43;;;11.40;1.00;;;;;;4970654;28;20586;-68
2023/01/01 05:51:38;;;;;;;8.33;4.73;;;11.70;1.00;;;;;;4979806;28;20173;-69
2023/01/01 05:54:04;;;;;;;7.13;4.60;;;11.80;1.00;;;;;;4963702;28;20214;-69
2023/01/01 05:56:30;;;;;;;8.37;4.80;;;11.90;1.00;;;;;;4973661;28;20259;-68
2023/01/01 05:58:55;;;;;;;7.37;4.40;;;11.80;1.00;;;;;;4971621;28;20462;-69
2023/01/01 06:01:27;;;;;;;7.20;5.10;;;11.80;1.00;;;;;;4970120;28;20215;-69
2023/01/01 06:03:54;;;;;;;6.23;4.37;;;11.90;1.00;;;;;;4970359;28;20889;-68
2023/01/01 06:06:23;;;;;;;8.43;5.50;;;11.90;1.00;;;;;;4970693;28;20467;-68
2023/01/01 06:08:52;;;;;;;6.63;4.60;;;11.90;1.00;;;;;;4969339;28;20431;-72
2023/01/01 06:11:18;;;;;;;7.50;5.53;;;11.90;1.00;;;;;;4970697;28;20521;-68
2023/01/01 06:13:44;;;;;;;9.80;5.47;;;11.80;1.00;;;;;;4968410;28;20814;-69
2023/01/01 06:16:10;;;;;;;10.60;7.20;;;11.60;1.00;;;;;;4971713;28;20427;-68
2023/01/01 06:18:36;;;;;;;10.17;7.00;;;11.50;1.00;;;;;;4969826;28;20188;-70
2023/01/01 06:21:13;;;;;;;11.20;7.00;;;11.20;1.00;;;;;;4971020;28;20489;-66
2023/01/01 06:23:39;;;;;;;10.43;7.60;;;10.90;1.00;;;;;;4979773;28;20210;-68
2023/01/01 06:26:12;;;;;;;11.70;7.00;;;10.60;1.00;;;;;;4970725;28;20999;-68
2023/01/01 06:28:38;;;;;;;11.37;7.20;;;10.40;1.00;;;;;;4970498;28;20450;-67
2023/01/01 06:31:05;;;;;;;12.20;6.63;;;10.20;1.00;;;;;;4970789;28;20416;-65
2023/01/01 06:33:31;;;;;;;12.50;7.43;;;10.00;1.00;;;;;;4970195;28;20230;-69
2023/01/01 06:35:57;;;;;;;10.00;7.10;;;9.90;1.00;;;;;;4970530;28;20427;-70
2023/01/01 06:38:23;;;;;;;12.23;7.30;;;9.70;1.00;;;;;;4968470;28;20498;-68
2023/01/01 06:41:03;;;;;;;12.20;7.10;;;9.70;1.00;;;;;;4970408;28;20860;-70
2023/01/01 06:43:31;;;;;;;8.90;6.40;;;9.50;1.00;;;;;;4969968;28;20210;-71
2023/01/01 06:46:03;;;;;;;9.73;6.63;;;9.50;1.00;;;;;;4970326;28;20431;-67
2023/01/01 06:48:31;;;;;;;9.70;6.30;;;9.40;1.00;;;;;;4969610;28;20427;-69
2023/01/01 06:50:57;;;;;;;13.50;4.40;;;9.40;1.00;;;;;;4970620;28;20827;-67
2023/01/01 06:53:26;;;;;;;11.00;6.03;;;9.40;3.10;;;;;;4970917;28;20541;-68
2023/01/01 06:55:52;;;;;;;7.87;6.00;;;9.50;1.00;;;;;;4969919;28;20411;-70
2023/01/01 06:58:18;;;;;;;9.90;6.87;;;9.40;1.00;;;;;;4970461;28;20435;-67
2023/01/01 07:00:43;;;;;;;9.20;6.03;;;9.40;1.00;;;;;;4970673;28;20419;-67
2023/01/01 07:03:09;;;;;;;9.17;5.30;;;9.40;2.80;;;;;;4966712;28;20204;-68
2023/01/01 07:05:35;;;;;;;7.43;5.50;;;9.40;2.40;;;;;;4968568;28;20282;-67
2023/01/01 07:08:01;;;;;;;8.73;5.73;;;9.50;3.10;;;;;;4969652;28;20439;-68
2023/01/01 07:10:26;;;;;;;9.40;6.03;;;9.50;1.00;;;;;;4968759;28;20180;-67
2023/01/01 07:12:51;;;;;;;10.37;5.30;;;9.40;1.00;;;;;;4969831;28;20203;-67
2023/01/01 07:15:17;;;;;;;8.30;5.60;;;9.40;1.00;;;;;;4969150;28;20314;-68
2023/01/01 07:17:42;;;;;;;12.27;6.70;;;9.30;1.00;;;;;;4971083;28;20175;-68
2023/01/01 07:20:08;;;;;;;8.80;6.30;;;9.30;1.70;;;;;;4971098;28;20188;-68
2023/01/01 07:22:36;;;;;;;10.70;6.80;;;9.20;1.00;;;;;;4971704;28;20562;-67
2023/01/01 07:25:02;;;;;;;8.77;6.03;;;9.20;1.00;;;;;;4970362;28;20682;-67
2023/01/01 07:27:27;;;;;;;11.87;6.80;;;9.30;2.70;;;;;;4969222;28;20442;-67
2023/01/01 07:29:52;;;;;;;8.17;5.60;;;9.10;1.00;;;;;;4968287;28;20789;-68
2023/01/01 07:32:18;;;;;;;6.90;5.40;;;9.10;1.00;;;;;;4970295;28;20180;-67
2023/01/01 07:34:43;;;;;;;9.70;5.80;;;9.10;1.90;;;;;;4968852;28;20212;-69
2023/01/01 07:37:09;;;;;;;12.57;6.17;;;9.10;1.60;;;;;;4970695;28;20172;-68
2023/01/01 07:39:34;;;;;;;7.90;5.50;;;9.10;4.50;;;;;;4965621;28;20262;-71
2023/01/01 07:42:00;;;;;;;8.13;5.10;;;9.10;3.80;;;;;;4962047;28;20656;-72
2023/01/01 07:44:25;;;;;;;6.90;5.07;;;9.10;2.00;;;;;;4968957;28;20207;-67
2023/01/01 07:47:04;;;;;;;6.97;5.10;;;9.20;2.30;;;;;;4970925;28;20168;-70
2023/01/01 07:49:29;;;;;;;6.43;5.00;;;9.20;1.00;;;;;;4968465;28;20179;-68
2023/01/01 07:51:55;;;;;;;10.53;5.27;;;9.20;1.10;;;;;;4972137;28;20422;-70
2023/01/01 07:54:20;;;;;;;7.10;5.50;;;9.30;1.00;;;;;;4973885;28;20246;-69
2023/01/01 07:56:46;;;;;;;8.93;5.73;;;9.30;1.00;;;;;;4969039;28;20218;-68
2023/01/01 07:59:11;;;;;;;8.70;5.10;;;9.30;1.00;;;;;;4968899;28;20234;-70
2023/01/01 08:01:37;;;;;;;10.47;5.77;;;9.30;1.00;;;;;;4967459;28;20255;-68
2023/01/01 08:04:03;;;;;;;7.63;5.30;;;9.40;1.00;;;;;;4969501;28;20204;-67
2023/01/01 08:06:28;;;;;;;9.93;5.37;;;9.40;1.00;;;;;;4968908;28;20255;-68
2023/01/01 08:08:54;;;;;;;11.33;4.93;;;9.50;1.00;;;;;;4967517;28;20555;-68
2023/01/01 08:11:19;;;;;;;8.80;5.30;;;9.50;1.00;;;;;;4969261;28;20175;-68
2023/01/01 08:13:45;;;;;;;9.70;5.03;;;9.60;1.00;;;;;;4969422;28;20195;-68
2023/01/01 08:16:10;;;;;;;7.40;5.33;;;9.70;1.00;;;;;;4969998;28;20176;-66
2023/01/01 08:18:36;;;;;;;9.67;5.13;;;9.90;1.00;;;;;;4966867;28;20596;-71
2023/01/01 08:21:03;;;;;;;8.50;4.40;;;10.00;1.00;;;;;;4969641;28;20237;-65
2023/01/01 08:23:28;;;;;;;9.30;4.87;;;10.10;1.00;;;;;;4984130;28;20547;-69
2023/01/01 08:25:57;;;;;;;11.53;4.63;;;10.20;1.00;;;;;;4971209;28;20414;-68
2023/01/01 08:28:23;;;;;;;8.87;4.97;;;10.40;1.00;;;;;;4967372;28;20266;-70
2023/01/01 08:30:48;;;;;;;7.93;5.80;;;10.60;1.00;;;;;;4971159;28;20518;-68
2023/01/01 08:33:14;;;;;;;7.37;5.20;;;10.80;1.00;;;;;;4963492;28;20204;-68
2023/01/01 08:35:41;;;;;;;11.70;5.27;;;11.00;1.00;;;;;;4973469;28;20226;-68
2023/01/01 08:38:09;;;;;;;5.50;4.63;;;11.20;1.00;;;;;;4969902;28;20540;-68
2023/01/01 08:40:35;;;;;;;8.20;4.70;;;11.30;1.00;;;;;;4969522;28;20415;-67
2023/01/01 08:43:01;;;;;;;6.13;4.43;;;11.50;1.00;;;;;;4973212;28;20419;-68
2023/01/01 08:45:26;;;;;;;6.00;4.67;;;11.60;1.00;;;;;;4973154;28;20208;-69
2023/01/01 15:17:52;;;;;;;12.20;5.30;;;13.20;1.00;;;;;;5066129;28;20554;-70
2023/01/01 15:20:22;;;;;;;9.40;5.37;;;13.20;1.00;;;;;;5059757;28;20442;-70
2023/01/01 15:22:49;;;;;;;14.00;5.83;;;13.30;1.00;;;;;;5073408;28;20180;-69
2023/01/01 15:25:17;;;;;;;15.83;6.30;;;13.50;1.00;;;;;;5062970;28;20493;-71
2023/01/01 15:27:51;;;;;;;18.93;8.10;;;13.60;1.00;;;;;;5063447;28;20620;-70
2023/01/01 15:30:21;;;;;;;11.80;7.33;;;13.70;1.00;;;;;;5056465;28;20474;-71
2023/01/01 15:32:47;;;;;;;14.20;7.77;;;13.90;1.00;;;;;;5056665;28;20480;-70
2023/01/01 15:35:32;;;;;;;14.83;6.93;;;14.00;1.00;;;;;;5065149;28;20414;-70
2023/01/01 15:38:01;;;;;;;12.33;6.47;;;14.10;1.00;;;;;;5053771;28;20184;-74
2023/01/01 15:40:26;;;;;;;8.07;4.27;;;14.20;1.00;;;;;;5054027;28;20418;-71
2023/01/01 15:42:55;;;;;;;11.40;6.60;;;14.30;1.00;;;;;;5064473;28;20445;-73
2023/01/01 15:45:40;;;;;;;12.20;6.43;;;14.30;1.00;;;;;;5064347;28;20660;-70
2023/01/01 15:48:05;;;;;;;15.47;6.70;;;14.30;1.00;;;;;;5058480;28;20503;-68
2023/01/01 15:50:42;;;;;;;14.80;6.00;;;14.30;1.00;;;;;;5061430;28;20894;-68
2023/01/01 15:53:17;;;;;;;7.73;4.57;;;14.30;1.00;;;;;;5057868;28;20267;-68
2023/01/01 15:55:49;;;;;;;11.90;5.00;;;14.30;1.00;;;;;;5063690;28;20516;-70
2023/01/01 15:58:52;;;;;;;116.23;91.97;;;14.40;1.00;;;;;;5060241;28;20417;-71
2023/01/01 16:01:21;;;;;;;22.97;17.03;;;14.60;1.00;;;;;;5048211;28;20755;-68
2023/01/01 16:03:51;;;;;;;10.80;8.40;;;14.70;1.00;;;;;;5063162;28;20427;-67
2023/01/01 16:06:18;;;;;;;16.70;8.27;;;14.70;1.00;;;;;;5060743;28;20455;-69
2023/01/01 16:08:44;;;;;;;10.83;6.40;;;14.70;1.00;;;;;;5053927;28;20442;-69
2023/01/01 16:11:09;;;;;;;8.17;4.63;;;14.70;1.00;;;;;;5055146;28;20428;-68
2023/01/01 16:13:35;;;;;;;8.73;4.57;;;14.80;1.00;;;;;;5062021;28;20551;-68
2023/01/01 16:16:02;;;;;;;7.30;4.77;;;14.80;1.00;;;;;;5054194;28;20232;-68
2023/01/01 16:18:36;;;;;;;6.10;4.20;;;14.70;1.00;;;;;;5030904;28;20176;-69
2023/01/01 16:21:03;;;;;;;16.90;6.37;;;14.70;1.00;;;;;;5056417;28;20950;-68
2023/01/01 16:23:28;;;;;;;9.07;5.43;;;14.60;1.00;;;;;;5044432;28;20462;-67
2023/01/01 16:25:54;;;;;;;10.33;5.30;;;14.50;1.00;;;;;;5049839;28;21483;-67
2023/01/01 16:28:19;;;;;;;37.60;14.40;;;14.40;1.00;;;;;;5048922;28;20218;-70
2023/01/01 16:30:45;;;;;;;12.07;5.97;;;14.70;1.00;;;;;;5043074;28;20571;-73
2023/01/01 16:33:19;;;;;;;9.60;5.80;;;14.90;1.00;;;;;;5049857;28;20185;-72
2023/01/01 16:35:45;;;;;;;11.53;5.60;;;14.70;1.00;;;;;;5032706;28;20852;-69
2023/01/01 16:38:11;;;;;;;13.60;6.03;;;14.50;1.00;;;;;;5051092;28;20419;-72
2023/01/01 16:40:37;;;;;;;7.93;4.53;;;14.20;1.00;;;;;;5046418;28;20206;-68
2023/01/01 16:43:04;;;;;;;15.70;5.17;;;14.00;1.00;;;;;;5047133;28;20659;-69
2023/01/01 16:45:30;;;;;;;8.40;4.80;;;13.80;1.00;;;;;;5041223;28;20888;-71
2023/01/01 16:47:56;;;;;;;10.63;4.93;;;13.60;1.00;;;;;;5044863;28;20600;-71
2023/01/01 16:50:21;;;;;;;11.80;5.60;;;13.40;1.00;;;;;;5046555;28;20523;-69
2023/01/01 16:52:47;;;;;;;9.10;4.87;;;13.30;1.00;;;;;;5056039;28;20207;-66
2023/01/01 16:55:13;;;;;;;10.10;5.53;;;13.10;1.00;;;;;;5052624;28;20188;-69
2023/01/01 16:57:39;;;;;;;9.63;5.30;;;13.00;1.00;;;;;;5046159;28;20622;-69
2023/01/01 17:00:05;;;;;;;9.67;5.07;;;12.90;1.00;;;;;;5050142;28;20169;-71
2023/01/01 17:02:31;;;;;;;8.57;3.67;;;12.90;1.00;;;;;;5048682;28;20445;-69
2023/01/01 17:04:56;;;;;;;10.60;4.60;;;12.80;1.00;;;;;;5049378;28;20953;-70
2023/01/01 17:07:22;;;;;;;9.23;4.40;;;13.00;1.00;;;;;;5051595;28;20178;-69
2023/01/01 17:09:47;;;;;;;7.53;4.07;;;13.20;1.00;;;;;;5034991;28;20181;-70
2023/01/01 17:12:13;;;;;;;12.53;5.73;;;13.40;1.00;;;;;;5040541;28;20182;-67
2023/01/01 17:14:38;;;;;;;14.60;6.20;;;13.50;1.00;;;;;;5043620;28;20659;-67
2023/01/01 17:17:04;;;;;;;11.50;5.13;;;13.60;1.00;;;;;;5049029;28;20254;-70
2023/01/01 17:19:29;;;;;;;11.33;5.20;;;13.70;1.00;;;;;;5042688;28;20212;-68
2023/01/01 17:21:55;;;;;;;10.20;5.60;;;13.80;1.00;;;;;;5053342;28;20173;-69
2023/01/01 17:24:20;;;;;;;8.23;4.70;;;13.90;1.00;;;;;;5037186;28;20197;-69
2023/01/01 17:26:51;;;;;;;7.43;4.77;;;14.00;1.00;;;;;;5051298;28;20195;-71
2023/01/01 17:29:17;;;;;;;6.40;3.90;;;14.00;1.00;;;;;;5045269;28;20173;-69
2023/01/01 17:31:43;;;;;;;11.13;4.10;;;14.00;1.00;;;;;;5048116;28;20841;-69
2023/01/01 17:34:13;;;;;;;6.33;3.83;;;14.00;1.00;;;;;;5048515;28;20455;-68
2023/01/01 17:36:39;;;;;;;7.00;3.70;;;14.00;1.00;;;;;;5049677;28;20197;-68
2023/01/01 17:39:05;;;;;;;6.43;4.20;;;14.00;1.00;;;;;;5049145;28;20495;-69
2023/01/01 17:41:32;;;;;;;15.23;4.47;;;14.10;1.00;;;;;;5036292;28;20511;-69
2023/01/01 17:43:58;;;;;;;7.90;3.83;;;14.20;1.00;;;;;;5042322;28;20193;-69
2023/01/01 17:46:26;;;;;;;9.10;4.07;;;14.20;1.00;;;;;;5048332;28;20416;-69
2023/01/01 17:48:52;;;;;;;12.83;4.27;;;14.20;1.00;;;;;;5041976;28;20173;-69
2023/01/01 17:51:18;;;;;;;8.63;4.23;;;14.10;1.00;;;;;;5046331;28;20423;-70
2023/01/01 17:53:44;;;;;;;7.90;3.97;;;14.00;1.00;;;;;;5053281;28;20243;-70
2023/01/01 17:56:12;;;;;;;15.00;6.30;;;14.00;1.00;;;;;;5048290;28;20821;-68
2023/01/01 17:58:39;;;;;;;7.83;4.70;;;14.10;1.00;;;;;;5048156;28;20387;-69
2023/01/01 18:01:13;;;;;;;7.37;4.17;;;14.10;1.00;;;;;;5043525;28;20408;-69
2023/01/01 18:03:41;;;;;;;7.93;4.57;;;14.10;1.00;;;;;;5048918;28;20438;-69
2023/01/01 18:06:07;;;;;;;7.00;5.07;;;14.30;1.00;;;;;;5041866;28;20759;-69
2023/01/01 18:08:32;;;;;;;12.00;4.97;;;14.30;1.00;;;;;;5049730;28;20430;-71
2023/01/01 18:10:58;;;;;;;12.33;4.50;;;14.50;1.00;;;;;;5034015;28;20178;-70
2023/01/01 18:13:24;;;;;;;15.10;4.50;;;14.60;1.00;;;;;;5050381;28;20573;-68
2023/01/01 18:15:50;;;;;;;8.37;4.03;;;14.70;1.00;;;;;;5039937;28;20288;-68
2023/01/01 18:18:15;;;;;;;10.87;5.37;;;14.80;1.00;;;;;;5045572;28;20177;-69
2023/01/01 18:20:41;;;;;;;8.87;4.37;;;14.80;1.00;;;;;;5039069;28;20247;-68
2023/01/01 18:23:06;;;;;;;11.37;4.70;;;14.90;1.00;;;;;;5053045;28;20188;-69
2023/01/01 18:25:32;;;;;;;9.40;3.90;;;14.80;1.00;;;;;;5049237;28;20197;-68
2023/01/01 18:27:57;;;;;;;6.17;4.00;;;14.90;1.00;;;;;;5035477;28;20185;-68
2023/01/01 18:30:23;;;;;;;8.07;4.53;;;14.90;1.00;;;;;;5049807;28;20177;-69
2023/01/01 18:32:51;;;;;;;8.00;3.83;;;14.90;1.00;;;;;;5039931;28;20209;-68
2023/01/01 18:35:17;;;;;;;6.83;4.17;;;14.80;1.00;;;;;;5049611;28;20582;-69
2023/01/01 18:37:42;;;;;;;8.33;3.90;;;14.80;1.00;;;;;;5030686;28;20684;-69
2023/01/01 18:40:13;;;;;;;10.20;3.80;;;14.90;1.00;;;;;;5041901;28;20169;-68
2023/01/01 18:42:44;;;;;;;6.50;4.33;;;14.90;1.00;;;;;;5046383;28;20196;-68
2023/01/01 18:45:18;;;;;;;9.17;4.20;;;14.90;1.00;;;;;;5049156;28;20469;-68
2023/01/01 18:47:45;;;;;;;8.47;4.50;;;15.00;1.00;;;;;;5047004;28;20466;-68
2023/01/01 18:50:14;;;;;;;6.80;4.07;;;15.00;1.00;;;;;;5048362;28;20910;-70
2023/01/01 18:52:39;;;;;;;8.50;4.33;;;15.10;1.00;;;;;;5045556;28;20470;-69
2023/01/01 18:55:10;;;;;;;9.70;4.70;;;15.10;1.00;;;;;;5048927;28;20451;-69
2023/01/01 18:57:36;;;;;;;11.67;5.20;;;15.10;1.00;;;;;;5039747;28;20259;-69
2023/01/01 19:00:14;;;;;;;9.33;4.83;;;15.10;1.00;;;;;;5049384;28;20443;-69
2023/01/01 19:02:46;;;;;;;13.50;5.53;;;15.10;1.00;;;;;;5038569;28;20438;-69
2023/01/01 19:05:12;;;;;;;13.53;4.70;;;15.10;1.00;;;;;;5050173;28;20813;-68
2023/01/01 19:07:37;;;;;;;9.70;4.70;;;15.10;1.00;;;;;;5039496;28;20428;-69
2023/01/01 19:10:11;;;;;;;6.23;4.27;;;15.00;1.00;;;;;;5049046;28;20279;-69
2023/01/01 19:12:37;;;;;;;6.43;3.87;;;15.00;1.00;;;;;;5046474;28;20188;-68
2023/01/01 19:15:15;;;;;;;6.83;4.10;;;14.90;1.00;;;;;;5049378;28;20428;-68
2023/01/01 19:17:40;;;;;;;16.03;4.30;;;14.80;1.00;;;;;;5038187;28;20494;-71
2023/01/01 19:20:21;;;;;;;10.10;5.07;;;14.80;1.00;;;;;;5048533;28;20439;-71
2023/01/01 19:22:47;;;;;;;7.90;4.77;;;14.70;1.00;;;;;;5041997;28;20216;-69
2023/01/01 19:25:34;;;;;;;7.53;3.97;;;14.70;1.00;;;;;;5046113;28;20404;-69
2023/01/01 19:28:14;;;;;;;6.40;4.23;;;14.60;1.00;;;;;;5048840;28;20412;-69
2023/01/01 19:30:40;;;;;;;10.70;4.17;;;14.60;1.00;;;;;;5046756;28;20411;-69
2023/01/01 19:33:06;;;;;;;12.23;5.60;;;14.50;1.00;;;;;;5040238;28;20984;-68
2023/01/01 19:35:31;;;;;;;10.90;5.20;;;14.50;1.00;;;;;;5040443;28;20188;-71